Time;durP1;ratioP1;P1;durP2;ratioP2;P2;SDS_P1;SDS_P2;PMS_P1;PMS_P2;Temp;Humidity;BMP_temperature;BMP_pressure;BME280_temperature;BME280_humidity;BME280_pressure;Samples;Min_cycle;Max_cycle;Signal;HPM_P1;HPM_P2
2021/05/30 00:00:09;;;;;;;4.50;4.10;;;;;;;;;;5033714;28;20640;-78
2021/05/30 00:02:36;;;;;;;4.82;3.47;;;;;;;;;;5035850;28;20217;-78
2021/05/30 00:05:03;;;;;;;4.68;3.15;;;;;;;;;;5039176;28;20224;-78
2021/05/30 00:07:29;;;;;;;3.90;3.60;;;;;;;;;;5030267;28;20253;-78
2021/05/30 00:09:55;;;;;;;4.03;3.40;;;;;;;;;;5019697;28;20226;-79
2021/05/30 00:12:21;;;;;;;3.17;2.70;;;;;;;;;;5020908;28;20190;-78
2021/05/30 00:14:48;;;;;;;3.28;2.97;;;;;;;;;;5035643;28;20186;-78
2021/05/30 00:17:15;;;;;;;3.58;3.28;;;;;;;;;;5037572;28;20205;-78
2021/05/30 00:19:41;;;;;;;3.40;3.10;;;;;;;;;;5036303;28;20628;-78
2021/05/30 00:22:07;;;;;;;3.42;3.22;;;;;;;;;;5020112;28;20264;-79
2021/05/30 00:24:33;;;;;;;4.32;3.92;;;;;;;;;;5019839;28;20193;-77
2021/05/30 00:26:59;;;;;;;4.47;3.63;;;;;;;;;;5035170;28;20188;-79
2021/05/30 00:29:25;;;;;;;3.35;3.05;;;;;;;;;;5021078;28;20253;-78
2021/05/30 00:31:51;;;;;;;4.68;3.33;;;;;;;;;;5022148;28;20624;-79
2021/05/30 00:34:17;;;;;;;3.50;2.90;;;;;;;;;;5019858;28;20633;-78
2021/05/30 00:36:43;;;;;;;4.32;3.50;;;;;;;;;;5030587;28;20179;-79
2021/05/30 00:39:09;;;;;;;3.45;2.97;;;;;;;;;;5019302;28;20624;-79
2021/05/30 00:41:35;;;;;;;3.25;2.78;;;;;;;;;;5019725;28;20609;-78
2021/05/30 00:44:02;;;;;;;3.47;3.15;;;;;;;;;;5039043;28;20263;-79
2021/05/30 00:46:29;;;;;;;3.85;3.42;;;;;;;;;;5021291;28;20252;-79
2021/05/30 00:48:56;;;;;;;4.13;3.33;;;;;;;;;;5029512;28;20198;-78
2021/05/30 00:51:22;;;;;;;4.10;3.67;;;;;;;;;;5019355;28;20279;-79
2021/05/30 00:53:48;;;;;;;4.25;3.60;;;;;;;;;;5036132;28;20540;-78
2021/05/30 00:56:15;;;;;;;3.80;3.50;;;;;;;;;;5025989;28;20556;-78
2021/05/30 00:58:42;;;;;;;3.83;3.45;;;;;;;;;;5024329;28;20181;-78
2021/05/30 01:01:08;;;;;;;4.28;3.30;;;;;;;;;;5038058;28;20268;-78
2021/05/30 01:03:35;;;;;;;3.60;3.30;;;;;;;;;;5022014;28;20700;-79
2021/05/30 01:06:01;;;;;;;6.38;3.42;;;;;;;;;;5038740;28;20186;-79
2021/05/30 01:08:27;;;;;;;3.25;3.05;;;;;;;;;;5039670;28;20195;-78
2021/05/30 01:10:57;;;;;;;3.55;3.20;;;;;;;;;;5040194;28;20234;-79
2021/05/30 01:13:23;;;;;;;5.63;3.20;;;;;;;;;;5029255;28;20237;-79
2021/05/30 01:15:49;;;;;;;3.35;3.15;;;;;;;;;;5019606;28;20221;-79
2021/05/30 01:18:17;;;;;;;5.88;3.25;;;;;;;;;;5023150;28;20185;-78
2021/05/30 01:20:43;;;;;;;3.60;3.30;;;;;;;;;;5038247;28;20187;-78
2021/05/30 01:23:12;;;;;;;3.88;3.58;;;;;;;;;;5026139;28;20198;-78
2021/05/30 01:25:39;;;;;;;4.35;3.40;;;;;;;;;;5040742;28;20170;-79
2021/05/30 01:28:05;;;;;;;3.08;2.88;;;;;;;;;;5022736;28;20194;-78
2021/05/30 01:30:32;;;;;;;3.78;3.47;;;;;;;;;;5022350;28;20182;-79
2021/05/30 01:32:58;;;;;;;4.28;3.65;;;;;;;;;;5038077;28;20193;-79
2021/05/30 01:35:24;;;;;;;10.40;3.90;;;;;;;;;;5024589;28;20213;-78
2021/05/30 01:37:51;;;;;;;4.05;3.35;;;;;;;;;;5039878;28;20670;-79
2021/05/30 01:40:17;;;;;;;5.22;3.70;;;;;;;;;;5022408;28;20608;-79
2021/05/30 01:42:43;;;;;;;3.83;3.45;;;;;;;;;;5037366;28;20199;-79
2021/05/30 01:45:10;;;;;;;4.55;4.15;;;;;;;;;;5022345;28;20193;-78
2021/05/30 01:47:37;;;;;;;4.28;3.88;;;;;;;;;;5022344;28;20171;-78
2021/05/30 01:50:04;;;;;;;3.75;3.45;;;;;;;;;;5037105;28;20237;-79
2021/05/30 01:52:30;;;;;;;3.95;3.65;;;;;;;;;;5022798;28;20695;-79
2021/05/30 01:54:56;;;;;;;5.25;4.30;;;;;;;;;;5022039;28;20195;-79
2021/05/30 01:57:22;;;;;;;7.60;5.50;;;;;;;;;;5022292;28;20198;-79
2021/05/30 01:59:48;;;;;;;5.93;5.43;;;;;;;;;;5022305;28;20470;-78
2021/05/30 02:02:14;;;;;;;7.65;4.75;;;;;;;;;;5039596;28;20453;-79
2021/05/30 02:04:41;;;;;;;4.80;4.50;;;;;;;;;;5038807;28;20178;-79
2021/05/30 02:07:08;;;;;;;4.80;4.40;;;;;;;;;;5020959;28;20429;-79
2021/05/30 02:09:36;;;;;;;5.30;3.90;;;;;;;;;;5022138;28;20182;-78
2021/05/30 02:12:03;;;;;;;4.65;4.25;;;;;;;;;;5021792;28;20265;-79
2021/05/30 02:14:29;;;;;;;6.57;5.97;;;;;;;;;;5037926;28;20213;-79
2021/05/30 02:16:55;;;;;;;9.25;5.97;;;;;;;;;;5024728;28;20198;-79
2021/05/30 02:19:21;;;;;;;6.50;5.90;;;;;;;;;;5021860;28;20194;-79
2021/05/30 02:21:48;;;;;;;5.25;4.60;;;;;;;;;;5023004;28;20183;-79
2021/05/30 02:24:15;;;;;;;5.78;5.22;;;;;;;;;;5036980;28;20282;-78
2021/05/30 02:26:41;;;;;;;6.53;5.40;;;;;;;;;;5024051;28;20648;-79
2021/05/30 02:29:07;;;;;;;5.28;4.60;;;;;;;;;;5025234;28;20181;-78
2021/05/30 02:31:33;;;;;;;6.28;5.65;;;;;;;;;;5023425;28;20779;-78
2021/05/30 02:34:00;;;;;;;6.43;5.80;;;;;;;;;;5021946;28;20189;-78
2021/05/30 02:36:26;;;;;;;6.22;5.60;;;;;;;;;;5021304;28;20648;-78
2021/05/30 02:38:53;;;;;;;6.95;6.25;;;;;;;;;;5036441;28;20274;-78
2021/05/30 02:41:19;;;;;;;7.28;6.22;;;;;;;;;;5039096;28;20179;-79
2021/05/30 02:43:45;;;;;;;6.15;5.55;;;;;;;;;;5037935;28;20205;-79
2021/05/30 02:46:11;;;;;;;6.65;5.70;;;;;;;;;;5032315;28;20187;-78
2021/05/30 02:48:37;;;;;;;6.18;5.57;;;;;;;;;;5021445;28;20189;-79
2021/05/30 02:51:03;;;;;;;6.53;5.93;;;;;;;;;;5036198;28;20261;-79
2021/05/30 02:53:30;;;;;;;6.82;6.13;;;;;;;;;;5022076;28;20191;-79
2021/05/30 02:55:57;;;;;;;8.98;8.05;;;;;;;;;;5024899;28;20525;-79
2021/05/30 02:58:23;;;;;;;9.55;6.97;;;;;;;;;;5023069;28;20186;-79
2021/05/30 03:00:49;;;;;;;11.20;9.18;;;;;;;;;;5020762;28;20415;-79
2021/05/30 03:03:15;;;;;;;7.22;6.53;;;;;;;;;;5021189;28;20399;-78
2021/05/30 03:05:41;;;;;;;11.45;9.10;;;;;;;;;;5036242;28;20207;-79
2021/05/30 03:08:07;;;;;;;9.97;8.10;;;;;;;;;;5023852;28;20178;-78
2021/05/30 03:10:33;;;;;;;10.80;8.33;;;;;;;;;;5021563;28;20572;-79
2021/05/30 03:12:59;;;;;;;10.52;8.20;;;;;;;;;;5021017;28;20712;-78
2021/05/30 03:15:26;;;;;;;10.05;8.73;;;;;;;;;;5021037;28;20186;-79
2021/05/30 03:17:52;;;;;;;14.48;10.00;;;;;;;;;;5019887;28;20294;-79
2021/05/30 03:20:18;;;;;;;12.27;9.30;;;;;;;;;;5038250;28;20207;-79
2021/05/30 03:22:44;;;;;;;12.32;9.88;;;;;;;;;;5021866;28;20298;-79
2021/05/30 03:25:11;;;;;;;14.85;9.25;;;;;;;;;;5036063;28;20174;-79
2021/05/30 03:27:37;;;;;;;12.20;10.75;;;;;;;;;;5020602;28;20541;-79
2021/05/30 03:30:03;;;;;;;15.50;10.25;;;;;;;;;;5021396;28;20378;-78
2021/05/30 03:32:29;;;;;;;12.38;10.25;;;;;;;;;;5036883;28;20202;-78
2021/05/30 03:34:55;;;;;;;14.02;11.13;;;;;;;;;;5023227;28;20242;-77
2021/05/30 03:37:21;;;;;;;14.18;9.98;;;;;;;;;;5020165;28;20205;-79
2021/05/30 03:39:48;;;;;;;12.13;10.52;;;;;;;;;;5020751;28;20186;-78
2021/05/30 03:42:18;;;;;;;12.57;10.23;;;;;;;;;;5020259;28;20186;-79
2021/05/30 03:44:45;;;;;;;10.77;9.63;;;;;;;;;;5020692;28;20186;-78
2021/05/30 03:47:13;;;;;;;13.00;11.63;;;;;;;;;;5038141;28;20178;-78
2021/05/30 03:49:39;;;;;;;14.07;10.75;;;;;;;;;;5037889;28;20181;-79
2021/05/30 03:52:05;;;;;;;15.48;10.45;;;;;;;;;;5029999;28;20699;-79
2021/05/30 03:54:31;;;;;;;15.02;11.20;;;;;;;;;;5022244;28;20246;-78
2021/05/30 03:56:57;;;;;;;16.67;11.73;;;;;;;;;;5020440;28;20229;-79
2021/05/30 03:59:23;;;;;;;13.65;10.52;;;;;;;;;;5022298;28;20476;-78
2021/05/30 04:01:49;;;;;;;14.45;10.60;;;;;;;;;;5036971;28;20217;-79
2021/05/30 04:04:15;;;;;;;15.38;11.57;;;;;;;;;;5021818;28;20205;-79
2021/05/30 04:06:41;;;;;;;14.57;11.90;;;;;;;;;;5031067;28;20707;-79
2021/05/30 04:09:07;;;;;;;14.45;10.68;;;;;;;;;;5036911;28;20187;-79
2021/05/30 04:11:33;;;;;;;15.23;10.57;;;;;;;;;;5020635;28;20218;-79
2021/05/30 04:13:59;;;;;;;12.90;11.50;;;;;;;;;;5023314;28;20504;-79
2021/05/30 04:16:25;;;;;;;16.13;12.05;;;;;;;;;;5019490;28;20441;-79
2021/05/30 04:18:51;;;;;;;12.65;10.43;;;;;;;;;;5019349;28;20232;-79
2021/05/30 04:21:17;;;;;;;16.50;12.13;;;;;;;;;;5013567;28;20190;-79
2021/05/30 04:23:43;;;;;;;13.85;10.80;;;;;;;;;;5020127;28;20231;-79
2021/05/30 04:26:09;;;;;;;12.30;10.38;;;;;;;;;;5023339;28;20189;-78
2021/05/30 04:28:36;;;;;;;12.93;10.10;;;;;;;;;;5036590;28;20174;-79
2021/05/30 04:31:02;;;;;;;14.82;11.75;;;;;;;;;;5023911;28;20436;-79
2021/05/30 04:33:28;;;;;;;15.53;11.17;;;;;;;;;;5038635;28;20202;-78
2021/05/30 04:35:54;;;;;;;13.23;10.40;;;;;;;;;;5024188;28;20529;-78
2021/05/30 04:38:20;;;;;;;15.48;12.75;;;;;;;;;;5026239;28;20179;-79
2021/05/30 04:40:46;;;;;;;14.25;11.68;;;;;;;;;;5040659;28;20194;-79
2021/05/30 04:43:12;;;;;;;15.05;11.68;;;;;;;;;;5023519;28;20210;-79
2021/05/30 04:45:38;;;;;;;16.17;11.53;;;;;;;;;;5023151;28;20189;-79
2021/05/30 04:48:04;;;;;;;16.02;11.75;;;;;;;;;;5038028;28;20464;-78
2021/05/30 04:50:30;;;;;;;18.95;11.77;;;;;;;;;;5024624;28;20183;-78
2021/05/30 04:52:56;;;;;;;17.45;12.02;;;;;;;;;;5026530;28;20248;-79
2021/05/30 04:55:22;;;;;;;17.20;12.17;;;;;;;;;;5033387;28;20197;-78
2021/05/30 04:57:48;;;;;;;15.38;11.75;;;;;;;;;;5022898;28;20520;-78
2021/05/30 05:00:15;;;;;;;14.20;12.60;;;;;;;;;;5023186;28;20240;-78
2021/05/30 05:02:42;;;;;;;17.58;11.93;;;;;;;;;;5038472;28;20500;-79
2021/05/30 05:05:10;;;;;;;16.02;12.63;;;;;;;;;;5026267;28;20234;-78
2021/05/30 05:07:36;;;;;;;16.30;12.88;;;;;;;;;;5039525;28;20173;-79
2021/05/30 05:10:03;;;;;;;21.58;14.43;;;;;;;;;;5023268;28;20226;-79
2021/05/30 05:12:29;;;;;;;18.60;12.63;;;;;;;;;;5038532;28;20191;-79
2021/05/30 05:14:55;;;;;;;17.67;11.93;;;;;;;;;;5022879;28;20183;-79
2021/05/30 05:17:21;;;;;;;15.10;11.33;;;;;;;;;;5040100;28;20698;-79
2021/05/30 05:19:47;;;;;;;16.10;12.50;;;;;;;;;;5024300;28;20439;-79
2021/05/30 05:22:13;;;;;;;19.48;14.43;;;;;;;;;;5022960;28;20191;-79
2021/05/30 05:24:39;;;;;;;17.45;12.57;;;;;;;;;;5022945;28;20261;-79
2021/05/30 05:27:05;;;;;;;21.13;13.23;;;;;;;;;;5022388;28;20183;-77
2021/05/30 05:29:31;;;;;;;15.90;12.25;;;;;;;;;;5039305;28;20696;-80
2021/05/30 05:31:57;;;;;;;16.17;12.82;;;;;;;;;;5040031;28;20178;-80
2021/05/30 05:34:23;;;;;;;17.55;11.55;;;;;;;;;;5022847;28;20186;-80
2021/05/30 05:36:49;;;;;;;14.50;11.17;;;;;;;;;;5039862;28;20218;-79
2021/05/30 05:39:15;;;;;;;16.25;12.60;;;;;;;;;;5021999;28;20471;-80
2021/05/30 05:41:42;;;;;;;15.10;11.50;;;;;;;;;;5037560;28;20207;-80
2021/05/30 05:44:08;;;;;;;13.48;11.90;;;;;;;;;;5025042;28;20457;-79
2021/05/30 05:46:34;;;;;;;15.00;10.93;;;;;;;;;;5021731;28;20209;-79
2021/05/30 05:49:00;;;;;;;14.23;11.40;;;;;;;;;;5032521;28;20444;-80
2021/05/30 05:51:26;;;;;;;15.02;11.52;;;;;;;;;;5038034;28;20213;-80
2021/05/30 05:53:52;;;;;;;10.80;9.63;;;;;;;;;;5022394;28;20194;-79
2021/05/30 05:56:18;;;;;;;16.60;11.10;;;;;;;;;;5013548;28;20467;-79
2021/05/30 05:58:44;;;;;;;13.77;11.38;;;;;;;;;;5023942;28;20239;-79
2021/05/30 06:01:10;;;;;;;15.00;10.40;;;;;;;;;;5018325;28;20206;-79
2021/05/30 06:03:37;;;;;;;12.15;10.05;;;;;;;;;;5016987;28;20575;-80
2021/05/30 06:06:04;;;;;;;15.40;9.80;;;;;;;;;;5021836;28;20273;-79
2021/05/30 06:08:30;;;;;;;12.57;10.05;;;;;;;;;;5020988;28;20175;-79
2021/05/30 06:10:56;;;;;;;13.57;9.60;;;;;;;;;;5025124;28;20250;-79
2021/05/30 06:13:23;;;;;;;11.15;9.63;;;;;;;;;;5034523;28;20184;-78
2021/05/30 06:15:49;;;;;;;13.93;10.32;;;;;;;;;;5018190;28;20631;-81
2021/05/30 06:18:16;;;;;;;12.30;9.52;;;;;;;;;;5021467;28;20198;-80
2021/05/30 06:20:43;;;;;;;11.25;9.68;;;;;;;;;;5022798;28;20180;-79
2021/05/30 06:23:10;;;;;;;11.93;9.77;;;;;;;;;;5023870;28;20208;-79
2021/05/30 06:25:36;;;;;;;13.73;10.02;;;;;;;;;;5039911;28;20600;-80
2021/05/30 06:28:02;;;;;;;10.95;9.80;;;;;;;;;;5020540;28;20179;-79
2021/05/30 06:30:29;;;;;;;11.15;8.77;;;;;;;;;;5022996;28;20205;-80
2021/05/30 06:32:56;;;;;;;14.38;9.18;;;;;;;;;;5021500;28;20194;-80
2021/05/30 06:35:22;;;;;;;10.25;8.68;;;;;;;;;;5023479;28;20179;-81
2021/05/30 06:37:48;;;;;;;11.45;9.32;;;;;;;;;;5024503;28;20193;-80
2021/05/30 06:40:15;;;;;;;11.48;9.68;;;;;;;;;;5023121;28;20240;-80
2021/05/30 06:42:41;;;;;;;11.35;9.85;;;;;;;;;;5022793;28;20209;-80
2021/05/30 06:45:07;;;;;;;10.48;8.73;;;;;;;;;;5037324;28;20213;-81
2021/05/30 06:47:33;;;;;;;11.43;9.80;;;;;;;;;;5038077;28;20195;-81
2021/05/30 06:49:59;;;;;;;12.02;9.50;;;;;;;;;;5039558;28;20182;-83
2021/05/30 06:52:25;;;;;;;11.48;8.90;;;;;;;;;;5019888;28;20266;-83
2021/05/30 06:54:51;;;;;;;10.77;8.57;;;;;;;;;;5031957;28;20194;-80
2021/05/30 06:57:18;;;;;;;13.60;10.27;;;;;;;;;;5021057;28;20640;-80
2021/05/30 06:59:44;;;;;;;18.15;9.35;;;;;;;;;;5036426;28;20214;-81
2021/05/30 07:02:11;;;;;;;10.23;9.13;;;;;;;;;;5023894;28;20178;-79
2021/05/30 07:04:37;;;;;;;9.63;8.15;;;;;;;;;;5036870;28;20208;-80
2021/05/30 07:07:03;;;;;;;10.40;9.40;;;;;;;;;;5022878;28;20191;-79
2021/05/30 07:09:29;;;;;;;10.40;8.25;;;;;;;;;;5036930;28;20445;-82
2021/05/30 07:11:55;;;;;;;9.87;8.23;;;;;;;;;;5021024;28;20236;-81
2021/05/30 07:14:21;;;;;;;9.18;8.07;;;;;;;;;;5020260;28;20415;-80
2021/05/30 07:16:47;;;;;;;9.20;8.25;;;;;;;;;;5022523;28;20190;-82
2021/05/30 07:19:13;;;;;;;10.95;8.75;;;;;;;;;;5016373;28;20197;-81
2021/05/30 07:21:39;;;;;;;10.93;9.60;;;;;;;;;;5030059;28;20271;-79
2021/05/30 07:24:05;;;;;;;11.13;8.75;;;;;;;;;;5020724;28;20881;-83
2021/05/30 07:26:31;;;;;;;12.30;9.15;;;;;;;;;;5037827;28;20186;-81
2021/05/30 07:28:57;;;;;;;12.13;9.15;;;;;;;;;;5022616;28;20175;-81
2021/05/30 07:31:23;;;;;;;10.30;8.90;;;;;;;;;;5014660;28;20187;-82
2021/05/30 07:33:50;;;;;;;9.82;8.93;;;;;;;;;;5016271;28;20210;-79
2021/05/30 07:36:16;;;;;;;11.30;8.48;;;;;;;;;;5021026;28;20193;-80
2021/05/30 07:38:42;;;;;;;9.02;8.13;;;;;;;;;;5020668;28;20195;-80
2021/05/30 07:41:08;;;;;;;10.90;9.50;;;;;;;;;;5039119;28;20185;-79
2021/05/30 07:43:34;;;;;;;9.40;8.40;;;;;;;;;;5013960;28;20512;-79
2021/05/30 07:46:00;;;;;;;7.60;6.90;;;;;;;;;;5021567;28;20198;-82
2021/05/30 07:48:26;;;;;;;9.00;6.90;;;;;;;;;;5026575;28;20182;-83
2021/05/30 07:50:52;;;;;;;8.40;6.97;;;;;;;;;;5020979;28;20434;-80
2021/05/30 07:53:18;;;;;;;8.75;7.65;;;;;;;;;;5037970;28;20410;-81
2021/05/30 07:55:44;;;;;;;7.18;6.35;;;;;;;;;;5036877;28;20576;-81
2021/05/30 07:58:10;;;;;;;8.05;6.57;;;;;;;;;;5035202;28;20174;-81
2021/05/30 08:00:36;;;;;;;7.07;6.35;;;;;;;;;;5032427;28;20670;-80
2021/05/30 08:03:02;;;;;;;7.43;6.53;;;;;;;;;;5020574;28;20214;-81
2021/05/30 08:05:28;;;;;;;7.63;6.25;;;;;;;;;;5037018;28;20445;-80
2021/05/30 08:07:55;;;;;;;7.07;5.60;;;;;;;;;;5020645;28;20178;-82
2021/05/30 08:10:21;;;;;;;6.30;5.70;;;;;;;;;;5020938;28;20618;-80
2021/05/30 08:12:48;;;;;;;7.80;6.82;;;;;;;;;;5019969;28;20186;-81
2021/05/30 08:15:14;;;;;;;9.10;6.65;;;;;;;;;;5019609;28;20190;-80
2021/05/30 08:17:41;;;;;;;8.00;6.53;;;;;;;;;;5034974;28;20189;-80
2021/05/30 08:20:07;;;;;;;6.60;5.90;;;;;;;;;;5023686;28;20178;-80
2021/05/30 08:22:34;;;;;;;8.57;6.25;;;;;;;;;;5037716;28;20211;-78
2021/05/30 08:25:01;;;;;;;7.03;6.10;;;;;;;;;;5035437;28;20189;-77
2021/05/30 08:27:27;;;;;;;7.32;6.63;;;;;;;;;;5024928;28;20174;-82
2021/05/30 08:29:53;;;;;;;7.17;5.73;;;;;;;;;;5022487;28;20715;-81
2021/05/30 08:32:21;;;;;;;6.13;5.60;;;;;;;;;;5024783;28;20978;-80
2021/05/30 08:34:47;;;;;;;6.03;5.50;;;;;;;;;;5026380;28;20425;-81
2021/05/30 08:37:14;;;;;;;6.53;5.93;;;;;;;;;;5034920;28;20178;-80
2021/05/30 08:39:40;;;;;;;5.90;5.20;;;;;;;;;;5031757;28;20187;-80
2021/05/30 08:42:06;;;;;;;7.20;5.75;;;;;;;;;;5024701;28;20182;-81
2021/05/30 08:44:32;;;;;;;7.20;6.50;;;;;;;;;;5036526;28;20207;-80
2021/05/30 08:46:58;;;;;;;6.63;5.97;;;;;;;;;;5028030;28;20175;-81
2021/05/30 08:49:24;;;;;;;5.75;5.25;;;;;;;;;;5024889;28;20183;-81
2021/05/30 08:51:50;;;;;;;6.65;5.75;;;;;;;;;;5035200;28;20190;-80
2021/05/30 08:54:18;;;;;;;6.00;5.40;;;;;;;;;;5031242;28;20182;-81
2021/05/30 08:56:44;;;;;;;7.93;5.60;;;;;;;;;;5042751;28;20905;-81
2021/05/30 08:59:16;;;;;;;6.30;5.70;;;;;;;;;;5040562;28;20221;-81
2021/05/30 09:01:42;;;;;;;7.32;6.50;;;;;;;;;;5039384;28;20209;-80
2021/05/30 09:04:08;;;;;;;6.75;6.05;;;;;;;;;;5026473;28;20550;-79
2021/05/30 09:06:35;;;;;;;6.50;5.90;;;;;;;;;;5035227;28;20205;-79
2021/05/30 09:09:02;;;;;;;6.78;6.05;;;;;;;;;;5036466;28;20660;-79
2021/05/30 09:11:36;;;;;;;6.63;5.70;;;;;;;;;;5024402;28;20251;-82
2021/05/30 09:14:04;;;;;;;7.68;5.50;;;;;;;;;;5040868;28;20247;-78
2021/05/30 09:16:49;;;;;;;6.82;5.22;;;;;;;;;;5028254;28;20241;-81
2021/05/30 09:19:34;;;;;;;5.60;4.93;;;;;;;;;;5043143;28;20192;-82
2021/05/30 09:22:26;;;;;;;5.90;5.30;;;;;;;;;;5037628;28;20241;-81
2021/05/30 09:24:52;;;;;;;5.03;4.60;;;;;;;;;;5039201;28;20207;-82
2021/05/30 09:27:22;;;;;;;5.10;4.70;;;;;;;;;;5035958;28;20197;-79
2021/05/30 09:30:07;;;;;;;5.35;4.85;;;;;;;;;;5025783;28;20953;-81
2021/05/30 09:32:53;;;;;;;5.32;4.65;;;;;;;;;;5039629;28;20196;-81
2021/05/30 09:35:19;;;;;;;7.22;5.82;;;;;;;;;;5027699;28;20173;-81
2021/05/30 09:37:45;;;;;;;6.15;4.25;;;;;;;;;;5028612;28;20228;-82
2021/05/30 09:40:11;;;;;;;7.47;5.37;;;;;;;;;;5028644;28;20262;-80
2021/05/30 09:42:37;;;;;;;4.90;4.50;;;;;;;;;;5028662;28;20459;-79
2021/05/30 09:45:21;;;;;;;6.10;5.50;;;;;;;;;;5035577;28;20188;-83
2021/05/30 09:47:47;;;;;;;5.90;5.30;;;;;;;;;;5027024;28;20505;-83
2021/05/30 09:50:18;;;;;;;4.10;3.80;;;;;;;;;;5028615;28;20189;-83
2021/05/30 09:52:45;;;;;;;5.47;4.95;;;;;;;;;;5030798;28;20439;-81
2021/05/30 09:55:14;;;;;;;5.32;4.82;;;;;;;;;;5037169;28;20668;-81
2021/05/30 09:57:40;;;;;;;5.07;4.60;;;;;;;;;;5034579;28;20194;-83
2021/05/30 10:00:07;;;;;;;7.15;5.40;;;;;;;;;;5023818;28;20274;-81
2021/05/30 10:02:33;;;;;;;5.70;5.20;;;;;;;;;;5039487;28;20230;-78
2021/05/30 10:05:00;;;;;;;4.57;4.18;;;;;;;;;;5041203;28;20189;-83
2021/05/30 10:07:26;;;;;;;3.70;3.40;;;;;;;;;;5025284;28;20763;-81
2021/05/30 10:09:52;;;;;;;4.18;3.83;;;;;;;;;;5026842;28;20194;-84
2021/05/30 10:12:19;;;;;;;4.53;4.13;;;;;;;;;;5027112;28;20181;-81
2021/05/30 10:14:45;;;;;;;5.20;4.20;;;;;;;;;;5022925;28;20439;-82
2021/05/30 10:17:12;;;;;;;4.68;4.25;;;;;;;;;;5028046;28;20232;-83
2021/05/30 10:19:41;;;;;;;5.72;4.30;;;;;;;;;;5025415;28;20179;-82
2021/05/30 10:22:07;;;;;;;7.13;4.53;;;;;;;;;;5019346;28;20325;-82
2021/05/30 10:24:39;;;;;;;5.00;4.50;;;;;;;;;;5034026;28;20827;-82
2021/05/30 10:27:11;;;;;;;5.47;4.00;;;;;;;;;;5013955;28;20555;-81
2021/05/30 10:29:37;;;;;;;4.80;4.28;;;;;;;;;;5007664;28;20185;-82
2021/05/30 10:32:15;;;;;;;4.10;3.80;;;;;;;;;;5043655;28;20178;-81
2021/05/30 10:35:01;;;;;;;3.70;3.40;;;;;;;;;;5030254;28;20421;-81
2021/05/30 10:37:27;;;;;;;4.13;3.70;;;;;;;;;;5034117;28;20919;-81
2021/05/30 10:39:55;;;;;;;4.77;4.30;;;;;;;;;;5031111;28;20548;-83
2021/05/30 10:42:26;;;;;;;5.87;4.03;;;;;;;;;;5035710;28;20433;-83
2021/05/30 10:45:02;;;;;;;5.50;4.70;;;;;;;;;;5051484;28;20462;-82
2021/05/30 10:47:43;;;;;;;4.37;4.00;;;;;;;;;;5022974;28;20480;-82
2021/05/30 10:50:15;;;;;;;4.90;4.50;;;;;;;;;;5031970;28;20401;-78
2021/05/30 10:52:43;;;;;;;4.30;3.90;;;;;;;;;;5029467;28;20515;-82
2021/05/30 10:55:09;;;;;;;3.50;3.27;;;;;;;;;;5025923;28;20441;-82
2021/05/30 10:57:42;;;;;;;10.53;9.53;;;;;;;;;;5026137;28;20440;-81
2021/05/30 11:00:18;;;;;;;5.63;5.03;;;;;;;;;;5027639;28;20448;-82
2021/05/30 11:03:05;;;;;;;4.10;3.70;;;;;;;;;;5020963;28;20466;-85
2021/05/30 11:05:46;;;;;;;3.33;3.03;;;;;;;;;;5021012;28;20537;-85
2021/05/30 11:08:33;;;;;;;2.63;2.43;;;;;;;;;;5023266;28;20434;-81
2021/05/30 11:11:17;;;;;;;3.30;3.03;;;;;;;;;;5027601;28;20944;-81
2021/05/30 11:13:50;;;;;;;2.90;2.70;;;;;;;;;;5039792;28;20428;-80
2021/05/30 11:16:21;;;;;;;3.60;3.30;;;;;;;;;;5026322;28;20444;-83
2021/05/30 11:18:56;;;;;;;6.47;2.90;;;;;;;;;;5035107;28;20431;-82
2021/05/30 11:21:26;;;;;;;3.23;3.03;;;;;;;;;;5037941;28;20431;-84
2021/05/30 11:23:52;;;;;;;4.47;3.37;;;;;;;;;;5039584;28;20454;-80
2021/05/30 11:26:18;;;;;;;3.13;2.90;;;;;;;;;;5038840;28;20453;-82
2021/05/30 11:28:46;;;;;;;3.10;2.80;;;;;;;;;;5026873;28;20481;-83
2021/05/30 11:31:12;;;;;;;3.77;3.43;;;;;;;;;;5025241;28;20413;-83
2021/05/30 11:33:43;;;;;;;2.73;2.53;;;;;;;;;;5025355;28;20460;-83
2021/05/30 11:36:11;;;;;;;3.73;3.43;;;;;;;;;;5021022;28;20418;-81
2021/05/30 11:38:42;;;;;;;2.83;2.60;;;;;;;;;;5035377;28;20411;-82
2021/05/30 11:41:11;;;;;;;3.00;2.70;;;;;;;;;;5033187;28;20442;-81
2021/05/30 11:43:37;;;;;;;3.80;3.37;;;;;;;;;;5036631;28;20487;-82
2021/05/30 11:46:21;;;;;;;3.07;2.87;;;;;;;;;;5025050;28;20453;-82
2021/05/30 11:48:58;;;;;;;2.90;2.70;;;;;;;;;;5034658;28;20442;-83
2021/05/30 11:51:24;;;;;;;3.57;3.37;;;;;;;;;;5034550;28;20469;-82
2021/05/30 11:53:49;;;;;;;3.30;2.83;;;;;;;;;;5016224;28;20451;-80
2021/05/30 11:56:15;;;;;;;3.43;3.13;;;;;;;;;;5035702;28;20459;-81
2021/05/30 11:58:46;;;;;;;2.73;2.53;;;;;;;;;;5025438;28;20452;-82
2021/05/30 12:01:12;;;;;;;3.03;2.83;;;;;;;;;;5032606;28;20611;-82
2021/05/30 12:03:48;;;;;;;2.50;2.30;;;;;;;;;;5037203;28;20464;-82
2021/05/30 12:06:15;;;;;;;2.33;2.13;;;;;;;;;;5025209;28;20435;-81
2021/05/30 12:08:41;;;;;;;2.50;2.30;;;;;;;;;;5021149;28;20466;-79
2021/05/30 12:11:11;;;;;;;2.03;1.93;;;;;;;;;;5028303;28;20465;-81
2021/05/30 12:13:38;;;;;;;2.63;2.43;;;;;;;;;;5025676;28;20422;-82
2021/05/30 12:16:15;;;;;;;3.90;3.70;;;;;;;;;;5024927;28;20480;-81
2021/05/30 12:18:54;;;;;;;4.30;3.17;;;;;;;;;;5021999;28;20853;-80
2021/05/30 12:21:21;;;;;;;3.63;3.33;;;;;;;;;;5011260;28;20454;-82
2021/05/30 12:23:47;;;;;;;2.40;2.30;;;;;;;;;;5040082;28;20467;-83
2021/05/30 12:26:13;;;;;;;2.47;2.27;;;;;;;;;;5041415;28;20427;-83
2021/05/30 12:28:40;;;;;;;2.37;2.20;;;;;;;;;;5026826;28;20833;-84
2021/05/30 12:31:11;;;;;;;2.33;2.23;;;;;;;;;;5024742;28;20519;-80
2021/05/30 12:33:53;;;;;;;2.00;1.90;;;;;;;;;;5034345;28;20432;-83
2021/05/30 12:36:32;;;;;;;2.07;1.83;;;;;;;;;;5030418;28;20444;-82
2021/05/30 12:38:59;;;;;;;2.00;1.87;;;;;;;;;;5036590;28;20440;-81
2021/05/30 12:41:30;;;;;;;1.77;1.67;;;;;;;;;;5037406;28;20421;-81
2021/05/30 12:44:04;;;;;;;2.10;1.93;;;;;;;;;;5026599;28;20495;-82
2021/05/30 12:46:31;;;;;;;2.33;2.23;;;;;;;;;;5013327;28;20460;-82
2021/05/30 12:48:57;;;;;;;2.17;2.07;;;;;;;;;;5016664;28;20457;-83
2021/05/30 12:51:26;;;;;;;2.30;2.20;;;;;;;;;;5022592;28;20439;-83
2021/05/30 12:53:52;;;;;;;2.40;2.20;;;;;;;;;;5039529;28;20444;-83
2021/05/30 12:56:20;;;;;;;1.90;1.80;;;;;;;;;;5017292;28;20414;-81
2021/05/30 12:58:46;;;;;;;1.90;1.80;;;;;;;;;;5035871;28;20436;-81
2021/05/30 13:01:22;;;;;;;2.37;1.80;;;;;;;;;;5038788;28;20442;-82
2021/05/30 13:03:50;;;;;;;2.20;2.10;;;;;;;;;;5027724;28;20473;-83
2021/05/30 13:06:16;;;;;;;2.40;2.20;;;;;;;;;;5054238;28;20436;-81
2021/05/30 13:08:42;;;;;;;1.90;1.80;;;;;;;;;;5038003;28;20446;-82
2021/05/30 13:11:08;;;;;;;1.90;1.80;;;;;;;;;;5030612;28;20472;-81
2021/05/30 13:13:35;;;;;;;2.90;2.70;;;;;;;;;;5035053;28;20843;-82
2021/05/30 13:16:01;;;;;;;1.80;1.70;;;;;;;;;;5042882;28;20442;-81
2021/05/30 13:18:28;;;;;;;2.60;2.40;;;;;;;;;;5033285;28;20429;-81
2021/05/30 13:20:56;;;;;;;2.73;2.53;;;;;;;;;;5040718;28;20472;-79
2021/05/30 13:23:24;;;;;;;2.40;2.20;;;;;;;;;;5026230;28;20461;-81
2021/05/30 13:26:05;;;;;;;2.20;2.10;;;;;;;;;;5027783;28;20470;-81
2021/05/30 13:28:45;;;;;;;2.17;2.00;;;;;;;;;;5024426;28;20422;-82
2021/05/30 13:31:13;;;;;;;2.63;2.03;;;;;;;;;;5043151;28;20449;-82
2021/05/30 13:33:40;;;;;;;2.47;2.27;;;;;;;;;;5034544;28;20428;-79
2021/05/30 13:36:07;;;;;;;2.43;1.93;;;;;;;;;;5023945;28;20443;-82
2021/05/30 13:38:33;;;;;;;1.93;1.80;;;;;;;;;;5023126;28;20993;-84
2021/05/30 13:40:59;;;;;;;1.87;1.63;;;;;;;;;;5029088;28;20689;-82
2021/05/30 13:43:26;;;;;;;1.70;1.60;;;;;;;;;;5027460;28;20541;-84
2021/05/30 13:45:52;;;;;;;2.17;1.70;;;;;;;;;;5026347;28;20484;-83
2021/05/30 13:48:18;;;;;;;1.53;1.43;;;;;;;;;;5041841;28;20442;-82
2021/05/30 13:50:46;;;;;;;3.37;1.53;;;;;;;;;;5023994;28;20994;-82
2021/05/30 13:53:13;;;;;;;2.00;1.77;;;;;;;;;;5028062;28;20428;-83
2021/05/30 13:55:40;;;;;;;1.93;1.70;;;;;;;;;;5028415;28;20428;-82
2021/05/30 13:58:06;;;;;;;2.40;2.20;;;;;;;;;;5027022;28;20414;-82
2021/05/30 14:00:33;;;;;;;1.80;1.70;;;;;;;;;;5024939;28;20443;-82
2021/05/30 14:02:59;;;;;;;2.33;1.90;;;;;;;;;;5044749;28;20456;-82
2021/05/30 14:05:25;;;;;;;1.90;1.80;;;;;;;;;;5025758;28;20430;-82
2021/05/30 14:07:51;;;;;;;4.97;2.00;;;;;;;;;;5028322;28;20393;-82
2021/05/30 14:10:18;;;;;;;3.23;1.57;;;;;;;;;;5027762;28;20478;-80
2021/05/30 14:12:44;;;;;;;3.30;2.10;;;;;;;;;;5038864;28;20419;-82
2021/05/30 14:15:10;;;;;;;1.93;1.83;;;;;;;;;;5035975;28;20506;-79
2021/05/30 14:17:38;;;;;;;2.03;1.93;;;;;;;;;;5022664;28;20829;-80
2021/05/30 14:20:06;;;;;;;1.97;1.87;;;;;;;;;;5022294;28;20923;-83
2021/05/30 14:22:32;;;;;;;2.10;1.90;;;;;;;;;;5050661;28;20418;-83
2021/05/30 14:24:58;;;;;;;2.50;2.30;;;;;;;;;;5045535;28;20438;-81
2021/05/30 14:27:24;;;;;;;2.30;2.10;;;;;;;;;;5038822;28;20439;-80
2021/05/30 14:29:50;;;;;;;2.33;2.17;;;;;;;;;;5023251;28;20437;-83
2021/05/30 14:32:16;;;;;;;2.07;1.97;;;;;;;;;;5023374;28;20462;-81
2021/05/30 14:34:42;;;;;;;2.20;2.00;;;;;;;;;;5027606;28;20460;-82
2021/05/30 14:37:08;;;;;;;2.20;2.00;;;;;;;;;;5026040;28;20443;-80